sensor_id;sensor_type;location;lat;lon;timestamp;pressure;altitude;pressure_sealevel;temperature
76541;BMP280;65385;55.772;37.658;2023-05-02T00:00:11;100244.81;;;3.65
76541;BMP280;65385;55.772;37.658;2023-05-02T00:01:13;100243.81;;;3.67
76541;BMP280;65385;55.772;37.658;2023-05-02T00:02:13;100244.63;;;3.67
76541;BMP280;65385;55.772;37.658;2023-05-02T00:03:14;100251.78;;;3.65
76541;BMP280;65385;55.772;37.658;2023-05-02T00:04:16;100243.41;;;3.63
76541;BMP280;65385;55.772;37.658;2023-05-02T00:05:17;100251.38;;;3.61
76541;BMP280;65385;55.772;37.658;2023-05-02T00:06:18;100245.00;;;3.57
76541;BMP280;65385;55.772;37.658;2023-05-02T00:07:19;100251.34;;;3.55
76541;BMP280;65385;55.772;37.658;2023-05-02T00:08:20;100248.94;;;3.53
76541;BMP280;65385;55.772;37.658;2023-05-02T00:09:20;100250.72;;;3.53
76541;BMP280;65385;55.772;37.658;2023-05-02T00:10:21;100255.09;;;3.52
76541;BMP280;65385;55.772;37.658;2023-05-02T00:11:22;100248.75;;;3.55
76541;BMP280;65385;55.772;37.658;2023-05-02T00:12:23;100262.06;;;3.58
76541;BMP280;65385;55.772;37.658;2023-05-02T00:13:24;100254.13;;;3.60
76541;BMP280;65385;55.772;37.658;2023-05-02T00:14:25;100253.94;;;3.61
76541;BMP280;65385;55.772;37.658;2023-05-02T00:15:25;100258.75;;;3.64
76541;BMP280;65385;55.772;37.658;2023-05-02T00:16:27;100255.56;;;3.62
76541;BMP280;65385;55.772;37.658;2023-05-02T00:17:27;100258.50;;;3.59
76541;BMP280;65385;55.772;37.658;2023-05-02T00:18:28;100266.44;;;3.58
76541;BMP280;65385;55.772;37.658;2023-05-02T00:19:29;100252.31;;;3.54
76541;BMP280;65385;55.772;37.658;2023-05-02T00:20:29;100261.25;;;3.51
76541;BMP280;65385;55.772;37.658;2023-05-02T00:21:30;100259.69;;;3.50
76541;BMP280;65385;55.772;37.658;2023-05-02T00:22:32;100271.41;;;3.46
76541;BMP280;65385;55.772;37.658;2023-05-02T00:23:33;100270.78;;;3.44
76541;BMP280;65385;55.772;37.658;2023-05-02T00:24:33;100266.81;;;3.42
76541;BMP280;65385;55.772;37.658;2023-05-02T00:25:34;100267.63;;;3.42
76541;BMP280;65385;55.772;37.658;2023-05-02T00:26:35;100264.03;;;3.43
76541;BMP280;65385;55.772;37.658;2023-05-02T00:27:35;100267.22;;;3.45
76541;BMP280;65385;55.772;37.658;2023-05-02T00:28:36;100265.22;;;3.41
76541;BMP280;65385;55.772;37.658;2023-05-02T00:29:37;100267.63;;;3.42
76541;BMP280;65385;55.772;37.658;2023-05-02T00:30:44;100270.22;;;3.42
76541;BMP280;65385;55.772;37.658;2023-05-02T00:31:45;100273.78;;;3.41
76541;BMP280;65385;55.772;37.658;2023-05-02T00:32:46;100269.59;;;3.40
76541;BMP280;65385;55.772;37.658;2023-05-02T00:33:46;100274.16;;;3.38
76541;BMP280;65385;55.772;37.658;2023-05-02T00:34:47;100278.69;;;3.36
76541;BMP280;65385;55.772;37.658;2023-05-02T00:35:48;100277.13;;;3.35
76541;BMP280;65385;55.772;37.658;2023-05-02T00:36:49;100279.09;;;3.33
76541;BMP280;65385;55.772;37.658;2023-05-02T00:37:49;100270.72;;;3.31
76541;BMP280;65385;55.772;37.658;2023-05-02T00:38:50;100276.69;;;3.32
76541;BMP280;65385;55.772;37.658;2023-05-02T00:39:51;100269.53;;;3.27
76541;BMP280;65385;55.772;37.658;2023-05-02T00:40:51;100276.47;;;3.27
76541;BMP280;65385;55.772;37.658;2023-05-02T00:41:57;100282.44;;;3.27
76541;BMP280;65385;55.772;37.658;2023-05-02T00:42:57;100275.69;;;3.19
76541;BMP280;65385;55.772;37.658;2023-05-02T00:43:58;100282.19;;;3.15
76541;BMP280;65385;55.772;37.658;2023-05-02T00:44:59;100277.81;;;3.16
76541;BMP280;65385;55.772;37.658;2023-05-02T00:46:00;100288.56;;;3.13
76541;BMP280;65385;55.772;37.658;2023-05-02T00:47:01;100295.31;;;3.14
76541;BMP280;65385;55.772;37.658;2023-05-02T00:48:01;100288.56;;;3.13
76541;BMP280;65385;55.772;37.658;2023-05-02T00:49:02;100286.16;;;3.11
76541;BMP280;65385;55.772;37.658;2023-05-02T00:50:04;100286.97;;;3.12
76541;BMP280;65385;55.772;37.658;2023-05-02T00:51:05;100289.53;;;3.12
76541;BMP280;65385;55.772;37.658;2023-05-02T00:52:08;100284.72;;;3.09
76541;BMP280;65385;55.772;37.658;2023-05-02T00:53:09;100295.69;;;3.11
76541;BMP280;65385;55.772;37.658;2023-05-02T00:54:11;100293.47;;;3.08
76541;BMP280;65385;55.772;37.658;2023-05-02T00:55:12;100296.84;;;3.08
76541;BMP280;65385;55.772;37.658;2023-05-02T00:56:12;100299.03;;;3.05
76541;BMP280;65385;55.772;37.658;2023-05-02T00:57:13;100293.25;;;3.03
76541;BMP280;65385;55.772;37.658;2023-05-02T00:58:15;100300.00;;;3.04
76541;BMP280;65385;55.772;37.658;2023-05-02T00:59:19;100297.63;;;3.02
76541;BMP280;65385;55.772;37.658;2023-05-02T01:00:20;100294.22;;;3.02
76541;BMP280;65385;55.772;37.658;2023-05-02T01:02:58;100297.44;;;3.04
76541;BMP280;65385;55.772;37.658;2023-05-02T01:05:34;100300.00;;;3.04
76541;BMP280;65385;55.772;37.658;2023-05-02T01:10:16;100310.13;;;2.99
76541;BMP280;65385;55.772;37.658;2023-05-02T01:12:56;100315.28;;;2.99
76541;BMP280;65385;55.772;37.658;2023-05-02T01:13:59;100318.84;;;2.98
76541;BMP280;65385;55.772;37.658;2023-05-02T01:15:04;100313.69;;;2.98
76541;BMP280;65385;55.772;37.658;2023-05-02T01:16:06;100318.22;;;2.96
76541;BMP280;65385;55.772;37.658;2023-05-02T01:17:12;100320.63;;;2.97
76541;BMP280;65385;55.772;37.658;2023-05-02T01:18:15;100319.22;;;2.95
76541;BMP280;65385;55.772;37.658;2023-05-02T01:19:25;100321.41;;;2.91
76541;BMP280;65385;55.772;37.658;2023-05-02T01:20:29;100322.56;;;2.89
76541;BMP280;65385;55.772;37.658;2023-05-02T01:21:32;100325.34;;;2.87
76541;BMP280;65385;55.772;37.658;2023-05-02T01:22:36;100324.34;;;2.88
76541;BMP280;65385;55.772;37.658;2023-05-02T01:24:06;100323.56;;;2.88
76541;BMP280;65385;55.772;37.658;2023-05-02T01:26:21;100321.38;;;2.85
76541;BMP280;65385;55.772;37.658;2023-05-02T01:27:46;100324.31;;;2.81
76541;BMP280;65385;55.772;37.658;2023-05-02T01:29:58;100328.03;;;2.79
76541;BMP280;65385;55.772;37.658;2023-05-02T01:31:02;100335.63;;;2.80
76541;BMP280;65385;55.772;37.658;2023-05-02T01:32:05;100332.84;;;2.82
76541;BMP280;65385;55.772;37.658;2023-05-02T01:33:10;100336.84;;;2.85
76541;BMP280;65385;55.772;37.658;2023-05-02T01:34:11;100334.06;;;2.86
76541;BMP280;65385;55.772;37.658;2023-05-02T01:35:13;100335.66;;;2.87
76541;BMP280;65385;55.772;37.658;2023-05-02T01:36:16;100339.84;;;2.88
76541;BMP280;65385;55.772;37.658;2023-05-02T01:37:18;100343.25;;;2.89
76541;BMP280;65385;55.772;37.658;2023-05-02T01:38:20;100349.19;;;2.89
76541;BMP280;65385;55.772;37.658;2023-05-02T01:39:23;100345.81;;;2.89
76541;BMP280;65385;55.772;37.658;2023-05-02T01:40:25;100343.59;;;2.86
76541;BMP280;65385;55.772;37.658;2023-05-02T01:41:28;100354.56;;;2.88
76541;BMP280;65385;55.772;37.658;2023-05-02T01:42:31;100350.53;;;2.85
76541;BMP280;65385;55.772;37.658;2023-05-02T01:43:33;100351.56;;;2.84
76541;BMP280;65385;55.772;37.658;2023-05-02T01:44:36;100358.69;;;2.82
76541;BMP280;65385;55.772;37.658;2023-05-02T01:45:37;100354.31;;;2.83
76541;BMP280;65385;55.772;37.658;2023-05-02T01:46:40;100355.91;;;2.84
76541;BMP280;65385;55.772;37.658;2023-05-02T01:47:43;100358.28;;;2.85
76541;BMP280;65385;55.772;37.658;2023-05-02T01:48:45;100362.47;;;2.86
76541;BMP280;65385;55.772;37.658;2023-05-02T01:49:47;100360.69;;;2.87
76541;BMP280;65385;55.772;37.658;2023-05-02T01:50:49;100357.31;;;2.86
76541;BMP280;65385;55.772;37.658;2023-05-02T01:51:51;100359.53;;;2.89
76541;BMP280;65385;55.772;37.658;2023-05-02T01:52:53;100358.16;;;2.93
76541;BMP280;65385;55.772;37.658;2023-05-02T01:53:55;100357.22;;;3.01
76541;BMP280;65385;55.772;37.658;2023-05-02T01:54:57;100369.25;;;3.15
76541;BMP280;65385;55.772;37.658;2023-05-02T01:55:58;100366.00;;;3.34
76541;BMP280;65385;55.772;37.658;2023-05-02T01:57:00;100366.28;;;3.52
76541;BMP280;65385;55.772;37.658;2023-05-02T01:58:04;100362.41;;;3.76
76541;BMP280;65385;55.772;37.658;2023-05-02T01:59:07;100373.25;;;3.99
76541;BMP280;65385;55.772;37.658;2023-05-02T02:00:10;100375.09;;;4.25
76541;BMP280;65385;55.772;37.658;2023-05-02T02:01:16;100372.78;;;4.50
76541;BMP280;65385;55.772;37.658;2023-05-02T02:02:20;100377.34;;;4.74
76541;BMP280;65385;55.772;37.658;2023-05-02T02:03:21;100379.94;;;4.94
76541;BMP280;65385;55.772;37.658;2023-05-02T02:04:24;100371.31;;;5.13
76541;BMP280;65385;55.772;37.658;2023-05-02T02:05:27;100375.28;;;5.35
76541;BMP280;65385;55.772;37.658;2023-05-02T02:06:27;100373.03;;;5.52
76541;BMP280;65385;55.772;37.658;2023-05-02T02:07:28;100379.13;;;5.71
76541;BMP280;65385;55.772;37.658;2023-05-02T02:08:30;100372.47;;;5.88
76541;BMP280;65385;55.772;37.658;2023-05-02T02:09:32;100375.56;;;6.03
76541;BMP280;65385;55.772;37.658;2023-05-02T02:10:39;100378.47;;;6.20
76541;BMP280;65385;55.772;37.658;2023-05-02T02:11:51;100384.75;;;6.37
76541;BMP280;65385;55.772;37.658;2023-05-02T02:13:02;100384.66;;;6.50
76541;BMP280;65385;55.772;37.658;2023-05-02T02:14:06;100386.56;;;6.61
76541;BMP280;65385;55.772;37.658;2023-05-02T02:15:18;100379.59;;;6.80
76541;BMP280;65385;55.772;37.658;2023-05-02T02:16:24;100387.66;;;6.97
76541;BMP280;65385;55.772;37.658;2023-05-02T02:17:42;100389.06;;;7.18
76541;BMP280;65385;55.772;37.658;2023-05-02T02:18:43;100394.66;;;7.33
76541;BMP280;65385;55.772;37.658;2023-05-02T02:19:44;100393.09;;;7.50
76541;BMP280;65385;55.772;37.658;2023-05-02T02:20:46;100395.44;;;7.70
76541;BMP280;65385;55.772;37.658;2023-05-02T02:21:47;100396.97;;;7.89
76541;BMP280;65385;55.772;37.658;2023-05-02T02:22:49;100393.53;;;8.07
76541;BMP280;65385;55.772;37.658;2023-05-02T02:23:53;100399.03;;;8.28
76541;BMP280;65385;55.772;37.658;2023-05-02T02:24:56;100399.84;;;8.52
76541;BMP280;65385;55.772;37.658;2023-05-02T02:26:00;100402.56;;;8.80
76541;BMP280;65385;55.772;37.658;2023-05-02T02:27:02;100404.59;;;9.02
76541;BMP280;65385;55.772;37.658;2023-05-02T02:28:03;100412.28;;;9.20
76541;BMP280;65385;55.772;37.658;2023-05-02T02:29:04;100407.94;;;9.37
76541;BMP280;65385;55.772;37.658;2023-05-02T02:30:05;100412.75;;;9.57
76541;BMP280;65385;55.772;37.658;2023-05-02T02:31:06;100412.00;;;9.73
76541;BMP280;65385;55.772;37.658;2023-05-02T02:32:07;100414.19;;;9.93
76541;BMP280;65385;55.772;37.658;2023-05-02T02:33:08;100412.38;;;10.10
76541;BMP280;65385;55.772;37.658;2023-05-02T02:34:08;100409.88;;;10.31
76541;BMP280;65385;55.772;37.658;2023-05-02T02:35:10;100408.81;;;10.49
76541;BMP280;65385;55.772;37.658;2023-05-02T02:36:14;100409.50;;;10.78
76541;BMP280;65385;55.772;37.658;2023-05-02T02:37:21;100404.81;;;11.02
76541;BMP280;65385;55.772;37.658;2023-05-02T02:40:28;100427.06;;;11.69
76541;BMP280;65385;55.772;37.658;2023-05-02T02:41:39;100415.44;;;11.87
76541;BMP280;65385;55.772;37.658;2023-05-02T02:43:35;100414.03;;;12.06
76541;BMP280;65385;55.772;37.658;2023-05-02T02:44:35;100423.03;;;12.15
76541;BMP280;65385;55.772;37.658;2023-05-02T02:47:24;100420.25;;;12.32
76541;BMP280;65385;55.772;37.658;2023-05-02T02:49:50;100423.47;;;12.44
76541;BMP280;65385;55.772;37.658;2023-05-02T02:52:09;100422.59;;;12.70
76541;BMP280;65385;55.772;37.658;2023-05-02T02:53:17;100425.28;;;12.86
76541;BMP280;65385;55.772;37.658;2023-05-02T02:55:44;100424.38;;;13.22
76541;BMP280;65385;55.772;37.658;2023-05-02T02:56:50;100425.75;;;13.45
76541;BMP280;65385;55.772;37.658;2023-05-02T02:58:03;100434.47;;;13.65
76541;BMP280;65385;55.772;37.658;2023-05-02T02:59:13;100431.81;;;13.80
76541;BMP280;65385;55.772;37.658;2023-05-02T03:00:18;100425.00;;;14.00
76541;BMP280;65385;55.772;37.658;2023-05-02T03:01:21;100435.25;;;14.16
76541;BMP280;65385;55.772;37.658;2023-05-02T03:02:27;100433.94;;;14.29
76541;BMP280;65385;55.772;37.658;2023-05-02T03:03:29;100434.94;;;14.38
76541;BMP280;65385;55.772;37.658;2023-05-02T03:04:33;100435.75;;;14.38
76541;BMP280;65385;55.772;37.658;2023-05-02T03:05:34;100432.31;;;14.38
76541;BMP280;65385;55.772;37.658;2023-05-02T03:06:35;100439.69;;;14.46
76541;BMP280;65385;55.772;37.658;2023-05-02T03:07:36;100430.16;;;14.60
76541;BMP280;65385;55.772;37.658;2023-05-02T03:08:38;100429.38;;;14.65
76541;BMP280;65385;55.772;37.658;2023-05-02T03:09:45;100425.09;;;14.79
76541;BMP280;65385;55.772;37.658;2023-05-02T03:10:51;100437.94;;;14.90
76541;BMP280;65385;55.772;37.658;2023-05-02T03:11:52;100433.19;;;14.98
76541;BMP280;65385;55.772;37.658;2023-05-02T03:12:53;100428.97;;;15.02
76541;BMP280;65385;55.772;37.658;2023-05-02T03:13:55;100431.78;;;15.15
76541;BMP280;65385;55.772;37.658;2023-05-02T03:17:28;100432.09;;;15.48
76541;BMP280;65385;55.772;37.658;2023-05-02T03:18:28;100431.78;;;15.59
76541;BMP280;65385;55.772;37.658;2023-05-02T03:19:29;100433.81;;;15.67
76541;BMP280;65385;55.772;37.658;2023-05-02T03:20:30;100430.34;;;15.72
76541;BMP280;65385;55.772;37.658;2023-05-02T03:21:33;100432.88;;;15.87
76541;BMP280;65385;55.772;37.658;2023-05-02T03:22:40;100440.19;;;15.95
76541;BMP280;65385;55.772;37.658;2023-05-02T03:23:41;100442.22;;;16.03
76541;BMP280;65385;55.772;37.658;2023-05-02T03:24:43;100434.91;;;16.19
76541;BMP280;65385;55.772;37.658;2023-05-02T03:25:46;100442.28;;;16.22
76541;BMP280;65385;55.772;37.658;2023-05-02T03:26:56;100435.84;;;16.33
76541;BMP280;65385;55.772;37.658;2023-05-02T03:28:02;100443.91;;;16.41
76541;BMP280;65385;55.772;37.658;2023-05-02T03:29:03;100451.56;;;16.43
76541;BMP280;65385;55.772;37.658;2023-05-02T03:30:09;100446.41;;;16.57
76541;BMP280;65385;55.772;37.658;2023-05-02T03:31:11;100451.06;;;16.65
76541;BMP280;65385;55.772;37.658;2023-05-02T03:32:14;100445.44;;;16.71
76541;BMP280;65385;55.772;37.658;2023-05-02T03:33:16;100452.00;;;16.74
76541;BMP280;65385;55.772;37.658;2023-05-02T03:34:19;100454.84;;;16.77
76541;BMP280;65385;55.772;37.658;2023-05-02T03:35:21;100460.91;;;16.83
76541;BMP280;65385;55.772;37.658;2023-05-02T03:36:25;100449.47;;;17.06
76541;BMP280;65385;55.772;37.658;2023-05-02T03:37:27;100445.47;;;17.08
76541;BMP280;65385;55.772;37.658;2023-05-02T03:38:31;100458.88;;;17.17
76541;BMP280;65385;55.772;37.658;2023-05-02T03:39:35;100457.59;;;17.28
76541;BMP280;65385;55.772;37.658;2023-05-02T03:40:36;100456.75;;;17.33
76541;BMP280;65385;55.772;37.658;2023-05-02T03:41:37;100468.78;;;17.25
76541;BMP280;65385;55.772;37.658;2023-05-02T03:42:41;100468.00;;;17.25
76541;BMP280;65385;55.772;37.658;2023-05-02T03:43:53;100461.19;;;17.37
76541;BMP280;65385;55.772;37.658;2023-05-02T03:44:56;100463.06;;;17.37
76541;BMP280;65385;55.772;37.658;2023-05-02T03:46:07;100461.00;;;17.34
76541;BMP280;65385;55.772;37.658;2023-05-02T03:47:11;100467.06;;;17.34
76541;BMP280;65385;55.772;37.658;2023-05-02T03:48:15;100465.88;;;17.27
76541;BMP280;65385;55.772;37.658;2023-05-02T03:49:15;100468.34;;;17.37
76541;BMP280;65385;55.772;37.658;2023-05-02T03:50:19;100466.84;;;17.49
76541;BMP280;65385;55.772;37.658;2023-05-02T03:51:22;100471.09;;;17.32
76541;BMP280;65385;55.772;37.658;2023-05-02T03:52:26;100469.38;;;17.41
76541;BMP280;65385;55.772;37.658;2023-05-02T03:53:29;100475.84;;;17.30
76541;BMP280;65385;55.772;37.658;2023-05-02T03:54:32;100477.44;;;17.31
76541;BMP280;65385;55.772;37.658;2023-05-02T03:55:38;100480.50;;;17.38
76541;BMP280;65385;55.772;37.658;2023-05-02T03:56:40;100476.25;;;17.42
76541;BMP280;65385;55.772;37.658;2023-05-02T03:58:10;100485.91;;;17.65
76541;BMP280;65385;55.772;37.658;2023-05-02T03:59:11;100484.28;;;17.69
76541;BMP280;65385;55.772;37.658;2023-05-02T04:00:12;100486.75;;;17.79
76541;BMP280;65385;55.772;37.658;2023-05-02T04:01:13;100489.59;;;17.83
76541;BMP280;65385;55.772;37.658;2023-05-02T04:02:15;100485.13;;;17.97
76541;BMP280;65385;55.772;37.658;2023-05-02T04:03:20;100486.03;;;18.19
76541;BMP280;65385;55.772;37.658;2023-05-02T04:04:22;100488.81;;;18.42
76541;BMP280;65385;55.772;37.658;2023-05-02T04:05:25;100486.97;;;18.42
76541;BMP280;65385;55.772;37.658;2023-05-02T04:06:26;100484.19;;;18.47
76541;BMP280;65385;55.772;37.658;2023-05-02T04:07:34;100490.97;;;18.53
76541;BMP280;65385;55.772;37.658;2023-05-02T04:08:37;100492.81;;;18.66
76541;BMP280;65385;55.772;37.658;2023-05-02T04:09:38;100491.06;;;18.62
76541;BMP280;65385;55.772;37.658;2023-05-02T04:10:42;100486.53;;;18.76
76541;BMP280;65385;55.772;37.658;2023-05-02T04:11:44;100489.06;;;18.81
76541;BMP280;65385;55.772;37.658;2023-05-02T04:12:46;100493.00;;;18.97
76541;BMP280;65385;55.772;37.658;2023-05-02T04:13:48;100489.03;;;19.08
76541;BMP280;65385;55.772;37.658;2023-05-02T04:14:49;100488.59;;;19.28
76541;BMP280;65385;55.772;37.658;2023-05-02T04:15:50;100483.75;;;19.53
76541;BMP280;65385;55.772;37.658;2023-05-02T04:16:55;100487.94;;;19.67
76541;BMP280;65385;55.772;37.658;2023-05-02T04:18:04;100483.63;;;19.80
76541;BMP280;65385;55.772;37.658;2023-05-02T04:19:05;100488.13;;;19.79
76541;BMP280;65385;55.772;37.658;2023-05-02T04:20:07;100488.59;;;19.81
76541;BMP280;65385;55.772;37.658;2023-05-02T04:21:10;100488.34;;;19.91
76541;BMP280;65385;55.772;37.658;2023-05-02T04:22:11;100485.44;;;20.02
76541;BMP280;65385;55.772;37.658;2023-05-02T04:23:17;100483.25;;;20.04
76541;BMP280;65385;55.772;37.658;2023-05-02T04:24:19;100492.91;;;19.99
76541;BMP280;65385;55.772;37.658;2023-05-02T04:25:20;100493.22;;;19.98
76541;BMP280;65385;55.772;37.658;2023-05-02T04:26:20;100489.78;;;19.97
76541;BMP280;65385;55.772;37.658;2023-05-02T04:27:27;100500.25;;;19.94
76541;BMP280;65385;55.772;37.658;2023-05-02T04:28:28;100498.34;;;19.94
76541;BMP280;65385;55.772;37.658;2023-05-02T04:29:29;100494.16;;;19.93
76541;BMP280;65385;55.772;37.658;2023-05-02T04:30:30;100493.38;;;19.93
76541;BMP280;65385;55.772;37.658;2023-05-02T04:31:37;100495.06;;;20.28
76541;BMP280;65385;55.772;37.658;2023-05-02T04:32:38;100502.22;;;20.19
76541;BMP280;65385;55.772;37.658;2023-05-02T04:33:39;100506.31;;;19.94
76541;BMP280;65385;55.772;37.658;2023-05-02T04:34:41;100501.84;;;19.73
76541;BMP280;65385;55.772;37.658;2023-05-02T04:35:42;100498.84;;;19.66
76541;BMP280;65385;55.772;37.658;2023-05-02T04:36:46;100508.38;;;19.67
76541;BMP280;65385;55.772;37.658;2023-05-02T04:37:51;100509.53;;;19.52
76541;BMP280;65385;55.772;37.658;2023-05-02T04:38:52;100503.47;;;19.38
76541;BMP280;65385;55.772;37.658;2023-05-02T04:39:53;100505.06;;;19.25
76541;BMP280;65385;55.772;37.658;2023-05-02T04:40:57;100515.53;;;19.22
76541;BMP280;65385;55.772;37.658;2023-05-02T04:42:08;100509.63;;;19.69
76541;BMP280;65385;55.772;37.658;2023-05-02T04:43:15;100510.53;;;19.42
76541;BMP280;65385;55.772;37.658;2023-05-02T04:44:24;100508.03;;;19.37
76541;BMP280;65385;55.772;37.658;2023-05-02T04:45:25;100514.38;;;19.14
76541;BMP280;65385;55.772;37.658;2023-05-02T04:46:26;100518.63;;;19.37
76541;BMP280;65385;55.772;37.658;2023-05-02T04:47:27;100512.34;;;19.56
76541;BMP280;65385;55.772;37.658;2023-05-02T04:48:28;100515.84;;;19.65
76541;BMP280;65385;55.772;37.658;2023-05-02T04:49:29;100513.56;;;19.72
76541;BMP280;65385;55.772;37.658;2023-05-02T04:50:30;100515.16;;;20.12
76541;BMP280;65385;55.772;37.658;2023-05-02T04:51:31;100514.72;;;20.10
76541;BMP280;65385;55.772;37.658;2023-05-02T04:52:34;100522.69;;;20.10
76541;BMP280;65385;55.772;37.658;2023-05-02T04:53:35;100518.94;;;20.20
76541;BMP280;65385;55.772;37.658;2023-05-02T04:54:37;100523.50;;;20.19
76541;BMP280;65385;55.772;37.658;2023-05-02T04:55:37;100517.75;;;20.34
76541;BMP280;65385;55.772;37.658;2023-05-02T04:56:39;100519.03;;;20.45
76541;BMP280;65385;55.772;37.658;2023-05-02T04:57:40;100523.19;;;20.60
76541;BMP280;65385;55.772;37.658;2023-05-02T04:58:44;100524.28;;;20.68
76541;BMP280;65385;55.772;37.658;2023-05-02T04:59:46;100524.16;;;20.81
76541;BMP280;65385;55.772;37.658;2023-05-02T05:00:47;100527.44;;;20.87
76541;BMP280;65385;55.772;37.658;2023-05-02T05:01:48;100524.31;;;20.93
76541;BMP280;65385;55.772;37.658;2023-05-02T05:02:49;100521.03;;;20.96
76541;BMP280;65385;55.772;37.658;2023-05-02T05:03:50;100520.56;;;21.11
76541;BMP280;65385;55.772;37.658;2023-05-02T05:04:51;100520.59;;;21.20
76541;BMP280;65385;55.772;37.658;2023-05-02T05:05:53;100521.03;;;21.22
76541;BMP280;65385;55.772;37.658;2023-05-02T05:06:56;100525.75;;;21.25
76541;BMP280;65385;55.772;37.658;2023-05-02T05:07:57;100523.22;;;21.29
76541;BMP280;65385;55.772;37.658;2023-05-02T05:09:00;100524.16;;;21.33
76541;BMP280;65385;55.772;37.658;2023-05-02T05:10:01;100519.47;;;21.30
76541;BMP280;65385;55.772;37.658;2023-05-02T05:11:08;100516.19;;;21.24
76541;BMP280;65385;55.772;37.658;2023-05-02T05:12:09;100526.97;;;20.93
76541;BMP280;65385;55.772;37.658;2023-05-02T05:13:10;100522.06;;;20.52
76541;BMP280;65385;55.772;37.658;2023-05-02T05:14:13;100525.72;;;20.34
76541;BMP280;65385;55.772;37.658;2023-05-02T05:15:16;100519.66;;;20.03
76541;BMP280;65385;55.772;37.658;2023-05-02T05:16:25;100523.03;;;19.64
76541;BMP280;65385;55.772;37.658;2023-05-02T05:17:26;100533.50;;;19.47
76541;BMP280;65385;55.772;37.658;2023-05-02T05:18:26;100532.78;;;19.33
76541;BMP280;65385;55.772;37.658;2023-05-02T05:19:27;100536.09;;;19.16
76541;BMP280;65385;55.772;37.658;2023-05-02T05:20:29;100537.63;;;19.17
76541;BMP280;65385;55.772;37.658;2023-05-02T05:21:32;100537.13;;;19.29
76541;BMP280;65385;55.772;37.658;2023-05-02T05:22:38;100532.34;;;19.53
76541;BMP280;65385;55.772;37.658;2023-05-02T05:23:39;100534.59;;;19.68
76541;BMP280;65385;55.772;37.658;2023-05-02T05:24:55;100535.66;;;20.20
76541;BMP280;65385;55.772;37.658;2023-05-02T05:26:18;100530.97;;;20.56
76541;BMP280;65385;55.772;37.658;2023-05-02T05:27:21;100531.13;;;20.51
76541;BMP280;65385;55.772;37.658;2023-05-02T05:28:22;100539.75;;;20.57
76541;BMP280;65385;55.772;37.658;2023-05-02T05:29:23;100540.50;;;20.57
76541;BMP280;65385;55.772;37.658;2023-05-02T05:30:24;100533.34;;;20.67
76541;BMP280;65385;55.772;37.658;2023-05-02T05:31:24;100538.56;;;20.89
76541;BMP280;65385;55.772;37.658;2023-05-02T05:32:28;100536.97;;;20.79
76541;BMP280;65385;55.772;37.658;2023-05-02T05:33:29;100534.28;;;20.71
76541;BMP280;65385;55.772;37.658;2023-05-02T05:34:30;100539.75;;;20.66
76541;BMP280;65385;55.772;37.658;2023-05-02T05:35:32;100538.19;;;20.65
76541;BMP280;65385;55.772;37.658;2023-05-02T05:36:35;100537.16;;;20.35
76541;BMP280;65385;55.772;37.658;2023-05-02T05:37:36;100539.53;;;20.45
76541;BMP280;65385;55.772;37.658;2023-05-02T05:38:41;100542.84;;;20.50
76541;BMP280;65385;55.772;37.658;2023-05-02T05:39:43;100543.16;;;20.57
76541;BMP280;65385;55.772;37.658;2023-05-02T05:40:48;100540.91;;;20.90
76541;BMP280;65385;55.772;37.658;2023-05-02T05:41:49;100534.97;;;21.02
76541;BMP280;65385;55.772;37.658;2023-05-02T05:42:51;100540.47;;;21.05
76541;BMP280;65385;55.772;37.658;2023-05-02T05:43:57;100550.47;;;21.08
76541;BMP280;65385;55.772;37.658;2023-05-02T05:45:00;100534.13;;;20.67
76541;BMP280;65385;55.772;37.658;2023-05-02T05:46:01;100538.13;;;20.39
76541;BMP280;65385;55.772;37.658;2023-05-02T05:47:03;100538.13;;;20.08
76541;BMP280;65385;55.772;37.658;2023-05-02T05:48:04;100532.22;;;19.80
76541;BMP280;65385;55.772;37.658;2023-05-02T05:49:09;100537.03;;;19.56
76541;BMP280;65385;55.772;37.658;2023-05-02T05:50:13;100541.19;;;19.49
76541;BMP280;65385;55.772;37.658;2023-05-02T05:51:14;100547.22;;;19.63
76541;BMP280;65385;55.772;37.658;2023-05-02T05:52:15;100535.38;;;19.47
76541;BMP280;65385;55.772;37.658;2023-05-02T05:53:15;100532.84;;;19.86
76541;BMP280;65385;55.772;37.658;2023-05-02T05:54:18;100537.28;;;19.99
76541;BMP280;65385;55.772;37.658;2023-05-02T05:55:19;100532.28;;;19.97
76541;BMP280;65385;55.772;37.658;2023-05-02T05:56:20;100533.09;;;20.37
76541;BMP280;65385;55.772;37.658;2023-05-02T05:57:29;100538.34;;;20.59
76541;BMP280;65385;55.772;37.658;2023-05-02T05:58:30;100534.38;;;20.40
76541;BMP280;65385;55.772;37.658;2023-05-02T05:59:34;100538.69;;;20.19
76541;BMP280;65385;55.772;37.658;2023-05-02T06:00:36;100541.25;;;20.02
76541;BMP280;65385;55.772;37.658;2023-05-02T06:01:38;100527.19;;;19.79
76541;BMP280;65385;55.772;37.658;2023-05-02T06:02:39;100540.81;;;19.86
76541;BMP280;65385;55.772;37.658;2023-05-02T06:03:40;100545.44;;;19.72
76541;BMP280;65385;55.772;37.658;2023-05-02T06:04:41;100542.00;;;19.71
76541;BMP280;65385;55.772;37.658;2023-05-02T06:05:42;100541.06;;;19.76
76541;BMP280;65385;55.772;37.658;2023-05-02T06:06:43;100536.00;;;19.88
76541;BMP280;65385;55.772;37.658;2023-05-02T06:07:43;100541.97;;;20.24
76541;BMP280;65385;55.772;37.658;2023-05-02T06:08:44;100533.94;;;20.46
76541;BMP280;65385;55.772;37.658;2023-05-02T06:09:45;100536.50;;;20.69
76541;BMP280;65385;55.772;37.658;2023-05-02T06:10:46;100537.47;;;20.90
76541;BMP280;65385;55.772;37.658;2023-05-02T06:11:47;100534.63;;;20.95
76541;BMP280;65385;55.772;37.658;2023-05-02T06:12:48;100537.94;;;21.00
76541;BMP280;65385;55.772;37.658;2023-05-02T06:13:51;100539.81;;;21.00
76541;BMP280;65385;55.772;37.658;2023-05-02T06:14:52;100532.13;;;21.07
76541;BMP280;65385;55.772;37.658;2023-05-02T06:15:53;100537.97;;;21.17